Time;durP1;ratioP1;P1;durP2;ratioP2;P2;SDS_P1;SDS_P2;PMS_P1;PMS_P2;Temp;Humidity;BMP_temperature;BMP_pressure;BME280_temperature;BME280_humidity;BME280_pressure;Samples;Min_cycle;Max_cycle;Signal;HPM_P1;HPM_P2
2023/01/27 00:00:07;;;;;;;21.47;13.70;;;0.40;99.90;;;;;;4974996;28;20522;-52
2023/01/27 00:02:33;;;;;;;21.83;13.27;;;0.30;99.90;;;;;;4974887;28;20507;-53
2023/01/27 00:05:00;;;;;;;18.00;13.17;;;0.30;99.90;;;;;;4974771;28;20516;-53
2023/01/27 00:07:28;;;;;;;21.73;13.40;;;0.30;99.90;;;;;;4971030;28;21041;-52
2023/01/27 00:09:54;;;;;;;18.63;13.03;;;0.30;99.90;;;;;;4972447;28;20493;-53
2023/01/27 00:15:09;;;;;;;21.77;13.37;;;0.30;99.90;;;;;;4967264;28;20486;-53
2023/01/27 00:17:36;;;;;;;23.60;13.77;;;0.30;99.90;;;;;;4973786;28;20585;-52
2023/01/27 00:20:04;;;;;;;23.83;15.33;;;0.30;99.90;;;;;;4976063;28;20490;-52
2023/01/27 00:25:17;;;;;;;22.10;13.43;;;0.40;99.90;;;;;;4967834;28;20564;-52
2023/01/27 00:27:44;;;;;;;22.30;13.57;;;0.40;99.90;;;;;;4972766;28;20523;-53
2023/01/27 00:30:12;;;;;;;23.83;14.57;;;0.40;99.90;;;;;;4975231;28;20504;-52
2023/01/27 00:35:24;;;;;;;18.33;12.10;;;0.30;99.90;;;;;;4974073;28;20483;-52
2023/01/27 00:37:52;;;;;;;18.50;13.10;;;0.30;99.90;;;;;;4972311;28;20515;-52
2023/01/27 00:40:19;;;;;;;24.37;14.67;;;0.30;99.90;;;;;;4975112;28;20460;-52
2023/01/27 00:42:45;;;;;;;19.73;13.43;;;0.40;99.90;;;;;;4973143;28;20531;-52
2023/01/27 00:47:56;;;;;;;25.40;15.50;;;0.40;99.90;;;;;;4967593;28;20512;-53
2023/01/27 00:50:23;;;;;;;22.47;14.13;;;0.40;99.90;;;;;;4975301;28;20480;-53
2023/01/27 00:52:52;;;;;;;20.93;13.90;;;0.40;99.90;;;;;;4973795;28;20472;-53
2023/01/27 00:55:19;;;;;;;23.30;13.27;;;0.40;99.90;;;;;;4967713;28;20493;-52
2023/01/27 00:57:46;;;;;;;23.10;14.70;;;0.40;99.90;;;;;;4971253;28;20501;-52
2023/01/27 01:00:14;;;;;;;23.87;14.73;;;0.50;99.90;;;;;;4968293;28;20469;-53
2023/01/27 01:02:40;;;;;;;20.70;14.27;;;0.50;99.90;;;;;;4973525;28;20507;-53
2023/01/27 01:05:08;;;;;;;22.90;13.93;;;0.50;99.90;;;;;;4968664;28;20523;-52
2023/01/27 01:07:35;;;;;;;21.00;13.67;;;0.50;99.90;;;;;;4974251;28;20453;-53
2023/01/27 01:10:03;;;;;;;21.57;14.03;;;0.40;99.90;;;;;;4971402;28;20528;-52
2023/01/27 01:12:29;;;;;;;26.33;14.70;;;0.50;99.90;;;;;;4973290;28;20465;-53
2023/01/27 01:14:56;;;;;;;19.03;12.90;;;0.50;99.90;;;;;;4972095;28;21077;-53
2023/01/27 01:17:22;;;;;;;21.37;14.67;;;0.40;99.90;;;;;;4971020;28;20729;-52
2023/01/27 01:19:49;;;;;;;24.27;15.03;;;0.50;99.90;;;;;;4968025;28;20567;-52
2023/01/27 01:22:16;;;;;;;25.00;14.57;;;0.50;99.90;;;;;;4971260;28;20457;-52
2023/01/27 01:24:42;;;;;;;27.83;13.70;;;0.50;99.90;;;;;;4970661;28;20519;-53
2023/01/27 01:27:10;;;;;;;21.40;14.33;;;0.40;99.90;;;;;;4972944;28;20886;-53
2023/01/27 01:29:36;;;;;;;23.67;14.30;;;0.50;99.90;;;;;;4973064;28;20456;-53
2023/01/27 01:32:03;;;;;;;24.27;15.30;;;0.40;99.90;;;;;;4972332;28;20504;-53
2023/01/27 01:34:30;;;;;;;31.53;15.47;;;0.50;99.90;;;;;;4972198;28;20523;-53
2023/01/27 01:36:56;;;;;;;30.77;15.27;;;0.40;99.90;;;;;;4968361;28;20548;-53
2023/01/27 01:39:23;;;;;;;26.23;15.37;;;0.40;99.90;;;;;;4969243;28;20574;-53
2023/01/27 01:41:49;;;;;;;22.13;14.87;;;0.50;99.90;;;;;;4972439;28;20880;-53
2023/01/27 01:44:21;;;;;;;26.90;15.90;;;0.50;99.90;;;;;;4969604;28;20559;-53
2023/01/27 01:46:47;;;;;;;24.60;14.97;;;0.50;99.90;;;;;;4972128;28;20460;-53
2023/01/27 01:49:16;;;;;;;21.90;14.47;;;0.50;99.90;;;;;;4971665;28;20499;-53
2023/01/27 01:51:46;;;;;;;25.37;15.10;;;0.50;99.90;;;;;;4971225;28;20579;-53
2023/01/27 01:54:16;;;;;;;24.17;15.33;;;0.60;99.90;;;;;;4965458;28;20552;-53
2023/01/27 01:56:47;;;;;;;32.30;15.60;;;0.60;99.90;;;;;;4971023;28;20515;-52
2023/01/27 01:59:17;;;;;;;23.50;15.10;;;0.50;99.90;;;;;;4971893;28;20495;-52
2023/01/27 02:01:45;;;;;;;29.43;15.53;;;0.50;99.90;;;;;;4972065;28;20495;-52
2023/01/27 02:04:16;;;;;;;35.37;16.27;;;0.60;99.90;;;;;;4966387;28;20568;-52
2023/01/27 02:06:49;;;;;;;26.10;15.97;;;0.50;99.90;;;;;;4970826;28;20461;-52
2023/01/27 02:09:17;;;;;;;25.67;14.57;;;0.50;99.90;;;;;;4972519;28;20479;-52
2023/01/27 02:11:43;;;;;;;31.53;16.40;;;0.50;99.90;;;;;;4962085;28;20568;-53
2023/01/27 02:14:12;;;;;;;23.17;15.87;;;0.50;99.90;;;;;;4968327;28;20587;-53
2023/01/27 02:16:40;;;;;;;22.63;14.60;;;0.50;99.90;;;;;;4968668;28;20615;-53
2023/01/27 02:19:14;;;;;;;28.73;15.80;;;0.50;99.90;;;;;;4970049;28;20562;-54
2023/01/27 02:21:40;;;;;;;27.40;15.27;;;0.60;99.90;;;;;;4970030;28;20550;-52
2023/01/27 02:24:11;;;;;;;23.37;15.20;;;0.50;99.90;;;;;;4972274;28;20627;-52
2023/01/27 02:26:42;;;;;;;30.63;15.00;;;0.50;99.90;;;;;;4964827;28;20468;-53
2023/01/27 02:29:10;;;;;;;21.50;14.17;;;0.50;99.90;;;;;;4967104;28;20500;-52
2023/01/27 02:31:37;;;;;;;26.43;15.27;;;0.50;99.90;;;;;;4967604;28;21006;-52
2023/01/27 02:34:07;;;;;;;29.90;17.00;;;0.50;99.90;;;;;;4970618;28;20551;-52
2023/01/27 02:36:39;;;;;;;26.17;16.70;;;0.50;99.90;;;;;;4966902;28;20977;-52
2023/01/27 02:39:09;;;;;;;20.80;14.50;;;0.50;99.90;;;;;;4970876;28;20555;-52
2023/01/27 02:41:40;;;;;;;24.27;15.20;;;0.50;99.90;;;;;;4970382;28;20497;-52
2023/01/27 02:44:08;;;;;;;26.03;15.60;;;0.60;99.90;;;;;;4967470;28;20559;-52
2023/01/27 02:46:35;;;;;;;23.00;14.70;;;0.60;99.90;;;;;;4965731;28;20465;-52
2023/01/27 02:49:03;;;;;;;26.80;16.10;;;0.60;99.90;;;;;;4967700;28;20901;-53
2023/01/27 02:51:30;;;;;;;32.67;15.17;;;0.60;99.90;;;;;;4968244;28;20555;-53
2023/01/27 02:53:56;;;;;;;24.27;15.00;;;0.60;99.90;;;;;;4963690;28;20595;-52
2023/01/27 02:56:23;;;;;;;24.87;15.00;;;0.60;99.90;;;;;;4969777;28;20564;-52
2023/01/27 02:58:51;;;;;;;25.80;14.30;;;0.60;99.90;;;;;;4968790;28;20563;-52
2023/01/27 03:01:17;;;;;;;25.63;15.73;;;0.60;99.90;;;;;;4968194;28;21046;-52
2023/01/27 03:03:45;;;;;;;25.73;15.23;;;0.60;99.90;;;;;;4967294;28;20908;-52
2023/01/27 03:06:13;;;;;;;28.30;16.80;;;0.60;99.90;;;;;;4967529;28;20473;-52
2023/01/27 03:08:39;;;;;;;26.53;14.43;;;0.60;99.90;;;;;;4968387;28;20476;-52
2023/01/27 03:11:06;;;;;;;23.67;14.40;;;0.50;99.90;;;;;;4970628;28;22134;-52
2023/01/27 03:13:33;;;;;;;22.07;14.47;;;0.60;99.90;;;;;;4967845;28;20543;-52
2023/01/27 03:18:48;;;;;;;24.10;15.30;;;0.60;99.90;;;;;;4968654;28;20562;-52
2023/01/27 03:21:16;;;;;;;25.37;14.87;;;0.60;99.90;;;;;;4969552;28;20468;-52
2023/01/27 03:23:44;;;;;;;24.77;14.87;;;0.60;99.90;;;;;;4972282;28;20563;-53
2023/01/27 03:26:11;;;;;;;21.20;14.77;;;0.60;99.90;;;;;;4969194;28;20468;-53
2023/01/27 03:28:38;;;;;;;21.20;14.33;;;0.60;99.90;;;;;;4968126;28;21054;-53
2023/01/27 03:31:08;;;;;;;24.37;14.43;;;0.60;99.90;;;;;;4970065;28;20511;-52
2023/01/27 03:33:35;;;;;;;25.37;15.17;;;0.60;99.90;;;;;;4972398;28;20541;-52
2023/01/27 03:47:00;;;;;;;24.07;14.60;;;0.60;99.90;;;;;;4964478;28;20428;-52
2023/01/27 03:49:27;;;;;;;23.30;14.87;;;0.70;99.90;;;;;;4970861;28;20464;-52
2023/01/27 03:51:53;;;;;;;22.90;14.27;;;0.60;99.90;;;;;;4970465;28;20503;-52
2023/01/27 03:54:20;;;;;;;22.63;14.60;;;0.70;99.90;;;;;;4971062;28;20587;-52
2023/01/27 03:56:46;;;;;;;25.17;14.77;;;0.70;99.90;;;;;;4971904;28;20557;-53
2023/01/27 03:59:13;;;;;;;22.37;14.60;;;0.70;99.90;;;;;;4969786;28;20566;-53
2023/01/27 04:01:42;;;;;;;24.90;14.23;;;0.70;99.90;;;;;;4971341;28;20561;-53
2023/01/27 04:06:57;;;;;;;23.00;14.67;;;0.70;99.90;;;;;;4964022;28;20463;-52
2023/01/27 04:09:26;;;;;;;17.20;11.90;;;0.70;99.90;;;;;;4969489;28;20471;-53
2023/01/27 04:11:57;;;;;;;18.53;12.43;;;0.70;99.90;;;;;;4970171;28;20908;-53
2023/01/27 04:14:25;;;;;;;21.33;12.70;;;0.70;99.90;;;;;;4969697;28;20501;-52
2023/01/27 04:16:53;;;;;;;19.43;12.17;;;0.70;99.90;;;;;;4964210;28;20532;-53
2023/01/27 04:19:21;;;;;;;15.03;11.83;;;0.70;99.90;;;;;;4969328;28;20564;-53
2023/01/27 04:21:48;;;;;;;15.90;11.10;;;0.70;99.90;;;;;;4970172;28;20554;-53
2023/01/27 04:26:52;;;;;;;14.50;10.17;;;0.80;99.90;;;;;;4950440;28;20489;-54
2023/01/27 04:29:18;;;;;;;16.83;11.67;;;0.70;99.90;;;;;;4950033;28;20477;-56
2023/01/27 04:31:45;;;;;;;13.77;10.20;;;0.80;99.90;;;;;;4951107;28;20552;-55
2023/01/27 04:34:12;;;;;;;16.13;11.40;;;0.70;99.90;;;;;;4953453;28;20556;-55
2023/01/27 04:36:41;;;;;;;18.83;10.83;;;0.70;99.90;;;;;;4934636;29;21616;-55
2023/01/27 04:39:08;;;;;;;15.80;11.67;;;0.70;99.90;;;;;;4937539;29;20590;-56
2023/01/27 04:41:35;;;;;;;19.43;11.93;;;0.70;99.90;;;;;;4937135;29;20460;-56
2023/01/27 04:44:02;;;;;;;20.20;12.07;;;0.70;99.90;;;;;;4936261;29;20498;-56
2023/01/27 04:46:29;;;;;;;15.50;10.60;;;0.80;99.90;;;;;;4936123;29;20490;-57
2023/01/27 04:48:55;;;;;;;14.57;10.03;;;0.70;99.90;;;;;;4934493;29;20530;-56
2023/01/27 04:51:22;;;;;;;16.33;11.57;;;0.80;99.90;;;;;;4933604;29;20553;-56
2023/01/27 04:53:50;;;;;;;14.30;11.23;;;0.80;99.90;;;;;;4936166;29;20940;-56
2023/01/27 04:56:22;;;;;;;16.60;11.30;;;0.80;99.90;;;;;;4936835;29;20582;-56
2023/01/27 04:58:49;;;;;;;19.17;11.87;;;0.80;99.90;;;;;;4933193;29;20525;-56
2023/01/27 05:01:16;;;;;;;16.47;11.63;;;0.80;99.90;;;;;;4939887;28;20558;-55
2023/01/27 05:03:42;;;;;;;13.87;10.53;;;0.80;99.90;;;;;;4935031;29;20903;-55
2023/01/27 05:06:09;;;;;;;15.53;10.57;;;0.80;99.90;;;;;;4935649;29;20507;-56
2023/01/27 05:08:36;;;;;;;17.13;12.10;;;0.80;99.90;;;;;;4934360;29;20973;-56
2023/01/27 05:11:04;;;;;;;13.67;10.50;;;0.80;99.90;;;;;;4936813;29;20534;-56
2023/01/27 05:13:31;;;;;;;12.47;10.43;;;0.90;99.90;;;;;;4934598;29;20830;-57
2023/01/27 05:16:06;;;;;;;11.50;9.27;;;0.90;99.90;;;;;;4933996;29;20519;-56
2023/01/27 05:18:32;;;;;;;14.90;10.47;;;0.90;99.90;;;;;;4934971;29;20925;-55
2023/01/27 05:21:00;;;;;;;14.57;10.77;;;0.90;99.90;;;;;;4934780;29;21123;-57
2023/01/27 05:23:35;;;;;;;14.17;9.87;;;0.90;99.90;;;;;;4943794;29;20472;-56
2023/01/27 05:26:06;;;;;;;14.73;10.50;;;0.90;99.90;;;;;;4934828;29;20502;-56
2023/01/27 05:28:32;;;;;;;13.80;9.97;;;0.90;99.90;;;;;;4935959;28;20529;-56
2023/01/27 05:31:07;;;;;;;13.00;9.73;;;0.90;99.90;;;;;;4932620;29;20965;-55
2023/01/27 05:33:34;;;;;;;14.20;9.60;;;0.90;99.90;;;;;;4934628;29;20906;-55
2023/01/27 05:36:02;;;;;;;12.07;8.57;;;0.90;99.90;;;;;;4925360;29;25514;-54
2023/01/27 05:38:29;;;;;;;12.00;9.20;;;0.90;99.90;;;;;;4934577;29;20462;-52
2023/01/27 05:40:57;;;;;;;11.90;9.10;;;1.00;99.90;;;;;;4931382;29;20470;-51
2023/01/27 05:43:25;;;;;;;10.80;8.40;;;0.90;99.90;;;;;;4928736;29;20490;-51
2023/01/27 05:45:52;;;;;;;10.83;9.00;;;0.90;99.90;;;;;;4926878;29;20489;-52
2023/01/27 05:48:19;;;;;;;27.67;18.90;;;0.90;99.90;;;;;;4927418;29;20490;-51
2023/01/27 05:50:54;;;;;;;11.83;8.83;;;0.90;99.90;;;;;;4922382;29;20976;-51
2023/01/27 05:53:21;;;;;;;11.23;8.27;;;1.00;99.90;;;;;;4928834;29;20557;-51
2023/01/27 05:55:48;;;;;;;11.60;8.83;;;0.90;99.90;;;;;;4926706;29;20553;-52
2023/01/27 05:58:14;;;;;;;13.00;8.00;;;0.90;99.90;;;;;;4929802;29;20958;-51
2023/01/27 06:00:43;;;;;;;9.57;7.37;;;1.00;99.90;;;;;;4927299;29;21139;-52
2023/01/27 06:03:09;;;;;;;12.53;7.57;;;1.00;99.90;;;;;;4927507;29;20593;-51
2023/01/27 06:05:36;;;;;;;9.87;7.80;;;1.00;99.90;;;;;;4934144;29;20914;-57
2023/01/27 06:08:02;;;;;;;8.03;7.10;;;1.00;99.90;;;;;;4929894;29;20550;-55
2023/01/27 06:10:30;;;;;;;9.03;7.13;;;1.00;99.90;;;;;;4933106;29;20565;-56
2023/01/27 06:12:57;;;;;;;7.17;6.07;;;1.00;99.90;;;;;;4938306;29;20477;-56
2023/01/27 06:15:24;;;;;;;7.50;6.70;;;1.00;99.90;;;;;;4931579;29;20581;-55
2023/01/27 06:17:51;;;;;;;11.43;6.70;;;1.00;99.90;;;;;;4934357;29;20557;-56
2023/01/27 06:20:18;;;;;;;8.90;7.37;;;1.10;99.90;;;;;;4932522;29;20534;-55
2023/01/27 06:22:45;;;;;;;8.13;7.33;;;1.00;99.90;;;;;;4928260;29;20549;-55
2023/01/27 06:25:12;;;;;;;7.30;6.40;;;1.10;99.90;;;;;;4927767;29;20557;-55
2023/01/27 06:27:38;;;;;;;11.30;6.80;;;1.10;99.90;;;;;;4934480;29;20604;-54
2023/01/27 06:30:06;;;;;;;6.53;5.90;;;1.10;99.90;;;;;;4933145;29;21246;-55
2023/01/27 06:32:35;;;;;;;10.83;9.13;;;1.10;99.90;;;;;;4933313;28;20570;-56
2023/01/27 06:35:03;;;;;;;6.40;5.30;;;1.20;99.90;;;;;;4933520;29;20585;-55
2023/01/27 06:37:30;;;;;;;6.07;5.50;;;1.20;99.90;;;;;;4931422;29;20561;-55
2023/01/27 06:39:56;;;;;;;6.63;5.93;;;1.20;99.90;;;;;;4924243;29;21039;-55
2023/01/27 06:42:23;;;;;;;6.20;5.60;;;1.30;99.90;;;;;;4930821;29;20578;-55
2023/01/27 06:44:50;;;;;;;8.17;6.40;;;1.20;99.90;;;;;;4934829;29;20574;-56
2023/01/27 06:47:16;;;;;;;5.10;4.60;;;1.20;99.90;;;;;;4931572;29;20545;-56
2023/01/27 06:49:43;;;;;;;6.60;5.70;;;1.20;99.90;;;;;;4923959;29;20558;-55
2023/01/27 06:52:10;;;;;;;7.30;6.20;;;1.20;99.90;;;;;;4927207;29;20558;-56
2023/01/27 06:54:37;;;;;;;6.93;6.10;;;1.30;99.90;;;;;;4932480;29;20573;-56
2023/01/27 06:57:03;;;;;;;7.27;4.73;;;1.30;99.90;;;;;;4934062;29;21011;-56
2023/01/27 06:59:30;;;;;;;4.80;4.40;;;1.30;99.90;;;;;;4933111;29;20557;-55
2023/01/27 07:01:56;;;;;;;8.20;4.73;;;1.30;99.90;;;;;;4931656;29;20557;-55
2023/01/27 07:04:23;;;;;;;6.70;4.20;;;1.40;99.90;;;;;;4930462;29;20566;-54
2023/01/27 07:06:50;;;;;;;5.43;4.87;;;1.50;99.90;;;;;;4933103;29;20910;-55
2023/01/27 07:09:17;;;;;;;5.53;4.37;;;1.50;99.90;;;;;;4934931;29;20568;-55
2023/01/27 07:11:44;;;;;;;5.70;5.20;;;1.50;99.90;;;;;;4937289;29;20569;-55
2023/01/27 07:14:11;;;;;;;5.47;4.80;;;1.60;99.90;;;;;;4936937;29;20457;-55
2023/01/27 07:16:37;;;;;;;6.23;5.20;;;1.60;99.90;;;;;;4942422;29;20589;-56
2023/01/27 07:19:04;;;;;;;4.30;4.00;;;1.60;99.90;;;;;;4920385;29;20598;-55
2023/01/27 07:21:30;;;;;;;5.73;4.90;;;1.60;99.90;;;;;;4925991;29;20521;-54
2023/01/27 07:23:57;;;;;;;6.17;4.60;;;1.70;99.90;;;;;;4933295;29;20561;-55
2023/01/27 07:26:25;;;;;;;4.40;4.10;;;1.70;99.90;;;;;;4941701;29;20576;-55
2023/01/27 07:28:51;;;;;;;4.47;4.07;;;1.70;99.90;;;;;;4928083;29;20895;-55
2023/01/27 07:31:18;;;;;;;5.03;4.30;;;1.80;99.90;;;;;;4929899;29;20520;-55
2023/01/27 07:33:44;;;;;;;5.00;4.27;;;1.80;99.90;;;;;;4924209;29;20655;-55
2023/01/27 07:36:11;;;;;;;6.97;4.70;;;1.90;99.90;;;;;;4935830;28;20489;-55
2023/01/27 07:38:38;;;;;;;6.23;4.77;;;1.90;99.90;;;;;;4930242;29;21082;-56
2023/01/27 07:41:05;;;;;;;3.50;3.30;;;2.00;99.90;;;;;;4933283;29;20514;-56
2023/01/27 07:43:33;;;;;;;4.17;3.87;;;2.00;99.90;;;;;;4937912;29;20485;-56
2023/01/27 07:46:00;;;;;;;3.93;3.60;;;2.00;99.90;;;;;;4930516;29;20573;-56
2023/01/27 07:48:27;;;;;;;4.30;3.90;;;2.10;99.90;;;;;;4936569;29;20537;-56
2023/01/27 07:50:53;;;;;;;6.90;4.70;;;2.10;99.90;;;;;;4929067;29;20553;-57
2023/01/27 07:53:20;;;;;;;3.90;3.30;;;2.20;99.90;;;;;;4934901;29;20548;-58
2023/01/27 07:55:46;;;;;;;3.90;3.30;;;2.20;99.90;;;;;;4927990;29;20590;-58
2023/01/27 07:58:13;;;;;;;4.30;3.90;;;2.30;99.90;;;;;;4940506;29;20542;-57
2023/01/27 08:00:41;;;;;;;3.63;3.33;;;2.30;99.90;;;;;;4939841;28;20494;-58
2023/01/27 08:03:07;;;;;;;4.77;3.73;;;2.40;99.90;;;;;;4936390;29;20498;-58
2023/01/27 08:05:34;;;;;;;6.10;4.00;;;2.40;99.90;;;;;;4935150;29;21069;-58
2023/01/27 08:08:03;;;;;;;5.90;3.60;;;2.50;99.90;;;;;;4936519;29;20993;-58
2023/01/27 08:10:30;;;;;;;5.80;4.17;;;2.50;99.90;;;;;;4937936;28;20470;-57
2023/01/27 08:12:56;;;;;;;7.77;5.80;;;2.50;99.90;;;;;;4925991;29;20473;-59
2023/01/27 08:15:23;;;;;;;6.30;5.27;;;2.50;99.90;;;;;;4936729;29;20569;-58
2023/01/27 08:17:55;;;;;;;4.23;3.97;;;2.50;99.90;;;;;;4933533;29;20537;-58
2023/01/27 08:20:22;;;;;;;4.83;3.53;;;2.60;99.90;;;;;;4929373;29;20473;-58
2023/01/27 08:22:48;;;;;;;4.73;3.73;;;2.70;99.90;;;;;;4925026;29;20574;-57
2023/01/27 08:25:15;;;;;;;4.17;3.40;;;2.70;99.90;;;;;;4930727;29;20976;-58
2023/01/27 08:27:42;;;;;;;4.57;3.50;;;2.70;99.90;;;;;;4932166;29;20536;-57
2023/01/27 08:30:10;;;;;;;5.13;3.90;;;2.80;99.90;;;;;;4927848;29;20558;-58
2023/01/27 08:32:36;;;;;;;6.23;3.90;;;2.80;99.90;;;;;;4932990;29;20498;-57
2023/01/27 08:35:05;;;;;;;6.10;3.70;;;2.80;99.90;;;;;;4935946;29;20541;-57
2023/01/27 08:37:31;;;;;;;4.03;3.60;;;2.90;99.90;;;;;;4931651;29;20614;-54
2023/01/27 08:39:58;;;;;;;4.73;3.70;;;2.90;99.90;;;;;;4935999;29;20549;-55
2023/01/27 08:42:25;;;;;;;4.87;4.47;;;2.90;99.90;;;;;;4929087;29;20531;-55
2023/01/27 08:44:52;;;;;;;6.40;4.90;;;2.90;99.90;;;;;;4932826;29;21063;-55
2023/01/27 08:47:19;;;;;;;5.63;3.73;;;2.90;99.90;;;;;;4937527;29;20493;-55
2023/01/27 08:49:46;;;;;;;8.50;5.30;;;3.00;99.90;;;;;;4934201;29;20548;-55
2023/01/27 08:52:14;;;;;;;5.43;4.20;;;3.00;99.90;;;;;;4932239;29;20900;-55
2023/01/27 08:54:41;;;;;;;8.03;4.50;;;3.00;99.90;;;;;;4935438;29;20523;-55
2023/01/27 08:57:08;;;;;;;5.50;4.40;;;3.00;99.90;;;;;;4932335;29;20571;-55
2023/01/27 08:59:35;;;;;;;6.00;3.50;;;3.10;99.90;;;;;;4924785;29;20536;-55
2023/01/27 09:02:02;;;;;;;5.37;4.43;;;3.00;99.90;;;;;;4937028;29;20481;-55
2023/01/27 09:04:29;;;;;;;7.30;4.50;;;3.10;99.90;;;;;;4935097;29;20466;-55
2023/01/27 09:06:56;;;;;;;5.10;4.63;;;3.10;99.90;;;;;;4933948;29;20481;-55
2023/01/27 09:09:24;;;;;;;18.77;12.47;;;3.10;99.90;;;;;;4931998;29;20561;-55
2023/01/27 09:11:51;;;;;;;27.37;16.43;;;3.10;99.90;;;;;;4937687;28;20561;-55
2023/01/27 09:14:19;;;;;;;11.90;5.97;;;3.20;99.90;;;;;;4932935;29;20473;-54
2023/01/27 09:16:45;;;;;;;28.07;16.67;;;3.10;99.90;;;;;;4939145;28;20485;-54
2023/01/27 09:19:12;;;;;;;10.80;6.43;;;3.20;99.90;;;;;;4931998;29;20585;-55
2023/01/27 09:21:39;;;;;;;38.70;22.13;;;3.20;99.90;;;;;;4936051;28;20463;-54
2023/01/27 09:24:05;;;;;;;9.90;7.83;;;3.20;99.90;;;;;;4931962;29;20987;-55
2023/01/27 09:26:33;;;;;;;9.63;5.87;;;3.20;99.90;;;;;;4924566;29;20574;-55
2023/01/27 09:29:00;;;;;;;12.73;7.23;;;3.20;99.90;;;;;;4931881;29;20914;-54
2023/01/27 09:31:26;;;;;;;9.43;4.83;;;3.20;99.90;;;;;;4923904;29;20924;-55
2023/01/27 09:33:53;;;;;;;5.67;5.17;;;3.20;99.90;;;;;;4933179;29;20557;-55
2023/01/27 09:36:21;;;;;;;9.10;5.73;;;3.20;99.90;;;;;;4930710;29;20585;-54
2023/01/27 09:38:54;;;;;;;9.77;5.70;;;3.20;99.90;;;;;;4930448;29;20477;-55
2023/01/27 09:41:57;;;;;;;5.60;4.20;;;3.20;99.90;;;;;;4925088;29;20507;-55
2023/01/27 09:44:45;;;;;;;8.80;4.43;;;3.20;99.90;;;;;;4927886;29;20562;-56
2023/01/27 09:47:26;;;;;;;6.00;3.13;;;3.20;99.90;;;;;;4927215;29;21060;-55
2023/01/27 09:50:15;;;;;;;5.80;4.23;;;3.20;99.90;;;;;;4933810;29;20557;-54
2023/01/27 09:53:04;;;;;;;4.30;3.50;;;3.20;99.90;;;;;;4931499;29;20495;-55
2023/01/27 09:55:41;;;;;;;3.23;2.97;;;3.20;99.90;;;;;;4924826;29;21143;-56
2023/01/27 09:58:18;;;;;;;6.43;3.23;;;3.20;99.90;;;;;;4927525;29;21083;-55
2023/01/27 10:00:57;;;;;;;4.97;3.33;;;3.30;99.90;;;;;;4928288;29;20561;-54
2023/01/27 10:03:46;;;;;;;4.47;3.80;;;3.30;99.90;;;;;;4925717;29;20553;-55
2023/01/27 10:06:39;;;;;;;4.37;3.57;;;3.30;99.90;;;;;;4922370;29;20567;-55
2023/01/27 10:09:34;;;;;;;4.77;4.10;;;3.40;99.90;;;;;;4923934;29;21176;-55
2023/01/27 10:12:08;;;;;;;5.20;4.03;;;3.30;99.90;;;;;;4929290;29;20971;-55
2023/01/27 10:14:40;;;;;;;5.90;4.27;;;3.30;99.90;;;;;;4918128;29;20582;-54
2023/01/27 10:17:21;;;;;;;4.10;3.70;;;3.30;99.90;;;;;;4923342;29;20581;-55
2023/01/27 10:20:05;;;;;;;5.87;4.40;;;3.40;99.90;;;;;;4924946;28;20472;-55
2023/01/27 10:22:46;;;;;;;5.43;4.20;;;3.40;99.90;;;;;;4922601;29;20559;-54
2023/01/27 10:25:25;;;;;;;6.80;4.40;;;3.40;99.90;;;;;;4927319;28;20568;-52
2023/01/27 10:27:56;;;;;;;4.97;4.20;;;3.40;99.90;;;;;;4930883;29;20558;-51
2023/01/27 10:30:32;;;;;;;5.80;4.30;;;3.40;99.90;;;;;;4929486;29;20467;-52
2023/01/27 10:33:09;;;;;;;6.20;4.37;;;3.30;99.90;;;;;;4930677;28;20524;-51
2023/01/27 10:35:42;;;;;;;6.50;4.87;;;3.30;99.90;;;;;;4938531;29;20568;-51
2023/01/27 10:38:17;;;;;;;6.33;4.90;;;3.30;99.90;;;;;;4929416;29;20581;-51
2023/01/27 10:40:51;;;;;;;5.07;4.50;;;3.40;99.90;;;;;;4929202;29;20565;-51
2023/01/27 10:43:28;;;;;;;6.27;4.40;;;3.30;99.90;;;;;;4932523;29;20956;-51
2023/01/27 10:46:01;;;;;;;7.20;4.00;;;3.40;99.90;;;;;;4928069;29;20510;-53
2023/01/27 10:48:36;;;;;;;4.57;4.17;;;3.30;99.90;;;;;;4928548;29;21222;-51
2023/01/27 10:51:07;;;;;;;8.20;5.90;;;3.40;99.90;;;;;;4930803;29;20458;-52
2023/01/27 10:53:43;;;;;;;8.40;5.57;;;3.40;99.90;;;;;;4934805;28;20490;-52
2023/01/27 10:56:16;;;;;;;8.70;4.40;;;3.40;99.90;;;;;;4919705;29;20579;-52
2023/01/27 10:58:51;;;;;;;6.57;4.83;;;3.40;99.90;;;;;;4923606;29;20546;-51
2023/01/27 11:01:22;;;;;;;5.60;4.33;;;3.40;99.90;;;;;;4930577;29;20956;-51
2023/01/27 11:03:55;;;;;;;5.50;4.63;;;3.30;99.90;;;;;;4927851;29;20477;-51
2023/01/27 11:06:24;;;;;;;7.80;5.57;;;3.40;99.90;;;;;;4927601;29;20917;-52
2023/01/27 11:08:56;;;;;;;5.57;3.97;;;3.30;99.90;;;;;;4921101;29;20481;-52
2023/01/27 11:14:15;;;;;;;5.20;4.70;;;3.30;99.90;;;;;;4927843;29;20536;-52
2023/01/27 11:16:46;;;;;;;5.27;4.60;;;3.30;99.90;;;;;;4928922;29;20930;-51
2023/01/27 11:19:23;;;;;;;6.23;4.40;;;3.30;99.90;;;;;;4876762;28;59431;-51
2023/01/27 11:21:53;;;;;;;6.73;4.77;;;3.30;99.90;;;;;;4949415;28;20463;-52
2023/01/27 11:24:25;;;;;;;4.77;4.10;;;3.20;99.90;;;;;;4934172;29;20502;-52
2023/01/27 11:27:00;;;;;;;7.30;3.53;;;3.20;99.90;;;;;;4937255;29;21029;-51
2023/01/27 11:29:31;;;;;;;6.90;3.93;;;3.20;99.90;;;;;;4924106;29;20658;-52
2023/01/27 11:32:04;;;;;;;4.17;3.47;;;3.10;99.90;;;;;;4935974;29;20560;-51
2023/01/27 11:34:39;;;;;;;8.03;4.17;;;3.10;99.90;;;;;;4926403;29;20549;-52
2023/01/27 11:37:17;;;;;;;6.10;3.90;;;3.10;99.90;;;;;;4946554;29;20581;-52
2023/01/27 11:39:44;;;;;;;9.40;3.87;;;3.20;99.90;;;;;;4930027;29;20602;-51
2023/01/27 11:42:11;;;;;;;7.80;4.40;;;3.10;99.90;;;;;;4929127;29;20642;-52
2023/01/27 11:44:39;;;;;;;4.50;3.40;;;3.20;99.90;;;;;;4934079;29;20950;-52
2023/01/27 11:47:08;;;;;;;4.93;4.07;;;3.20;99.90;;;;;;4924539;29;20479;-52
2023/01/27 11:49:41;;;;;;;8.03;4.63;;;3.20;99.90;;;;;;4924949;29;20505;-52
2023/01/27 11:52:12;;;;;;;7.27;4.37;;;3.20;99.90;;;;;;4929809;29;20495;-51
2023/01/27 11:54:43;;;;;;;4.47;4.07;;;3.20;99.90;;;;;;4923630;29;20849;-52
2023/01/27 11:57:18;;;;;;;7.00;4.80;;;3.20;99.90;;;;;;4934125;29;21087;-51
2023/01/27 11:59:46;;;;;;;6.83;4.43;;;3.30;99.90;;;;;;4926227;29;21115;-52
2023/01/27 12:02:23;;;;;;;9.10;4.77;;;3.30;99.90;;;;;;4932658;29;20471;-52
2023/01/27 12:04:58;;;;;;;6.77;4.50;;;3.20;99.90;;;;;;4934080;29;20568;-52
2023/01/27 12:07:34;;;;;;;4.90;3.70;;;3.30;99.90;;;;;;4941944;29;20537;-52
2023/01/27 12:10:02;;;;;;;7.30;4.10;;;3.30;99.90;;;;;;4931518;29;20556;-52
2023/01/27 12:12:29;;;;;;;7.23;4.57;;;3.30;99.90;;;;;;4924871;29;20475;-53
2023/01/27 12:14:57;;;;;;;8.30;4.10;;;3.40;99.90;;;;;;4926464;29;20622;-53
2023/01/27 12:17:29;;;;;;;4.07;3.60;;;3.40;99.90;;;;;;4927897;29;20490;-51
2023/01/27 12:20:02;;;;;;;9.83;3.90;;;3.20;99.90;;;;;;4932107;29;20466;-51
2023/01/27 12:22:32;;;;;;;3.70;3.40;;;3.30;99.90;;;;;;4931770;29;20469;-51
2023/01/27 12:25:02;;;;;;;4.60;3.43;;;3.20;99.90;;;;;;4931319;29;20575;-52
2023/01/27 12:27:31;;;;;;;4.73;3.93;;;3.20;99.90;;;;;;4930161;29;20890;-52
2023/01/27 12:30:02;;;;;;;4.80;3.73;;;3.20;99.90;;;;;;4934168;29;20972;-53
2023/01/27 12:32:37;;;;;;;5.87;3.27;;;3.30;99.90;;;;;;4934121;29;20866;-53
2023/01/27 12:35:07;;;;;;;5.23;3.50;;;3.20;99.90;;;;;;4934141;29;20538;-54
2023/01/27 12:37:37;;;;;;;8.20;3.77;;;3.30;99.90;;;;;;4942735;29;20948;-53
2023/01/27 12:40:06;;;;;;;3.63;3.17;;;3.20;99.90;;;;;;4933658;29;20573;-53
2023/01/27 12:42:35;;;;;;;8.67;4.20;;;3.20;99.90;;;;;;4942314;28;20573;-53
2023/01/27 12:45:19;;;;;;;5.90;4.03;;;3.20;99.90;;;;;;4936942;29;20485;-53
2023/01/27 12:47:59;;;;;;;5.50;3.60;;;3.30;99.90;;;;;;4944824;29;20520;-53
2023/01/27 12:50:31;;;;;;;7.77;4.67;;;3.30;99.90;;;;;;4936689;29;20552;-54
2023/01/27 12:53:09;;;;;;;13.03;6.97;;;3.20;99.90;;;;;;4934816;29;20557;-54
2023/01/27 12:55:39;;;;;;;5.57;4.00;;;3.20;99.90;;;;;;4948046;29;20544;-54
2023/01/27 12:58:20;;;;;;;5.13;3.87;;;3.20;99.90;;;;;;4956238;28;20607;-54
2023/01/27 13:00:47;;;;;;;8.27;3.63;;;3.20;99.90;;;;;;4945223;29;20554;-52
2023/01/27 13:03:13;;;;;;;4.10;3.20;;;3.30;99.90;;;;;;4936784;29;20538;-54
2023/01/27 13:05:44;;;;;;;3.47;2.80;;;3.40;99.90;;;;;;4936715;29;21059;-53
2023/01/27 13:08:15;;;;;;;5.27;3.40;;;3.60;99.90;;;;;;4937038;29;20450;-53
2023/01/27 13:10:50;;;;;;;7.90;4.07;;;3.70;99.90;;;;;;4935753;29;20476;-53
2023/01/27 13:13:20;;;;;;;10.10;3.60;;;3.70;99.90;;;;;;4955720;29;21152;-53
2023/01/27 13:15:53;;;;;;;4.60;3.20;;;3.80;20.10;;;;;;4952452;28;21040;-54
2023/01/27 13:18:21;;;;;;;6.37;3.70;;;3.70;23.50;;;;;;4948142;29;20521;-53
2023/01/27 13:20:53;;;;;;;7.47;4.20;;;3.70;79.90;;;;;;4944709;29;20470;-52
2023/01/27 13:23:23;;;;;;;8.33;4.43;;;3.70;74.70;;;;;;4936543;29;20455;-54
2023/01/27 13:25:54;;;;;;;12.27;4.00;;;3.70;25.00;;;;;;4929061;29;20541;-54
2023/01/27 13:28:25;;;;;;;7.80;3.37;;;3.60;22.40;;;;;;4917871;29;20522;-53
2023/01/27 13:30:56;;;;;;;8.40;5.70;;;3.60;24.00;;;;;;4924676;29;20560;-54